Time;durP1;ratioP1;P1;durP2;ratioP2;P2;SDS_P1;SDS_P2;PMS_P1;PMS_P2;Temp;Humidity;BMP_temperature;BMP_pressure;BME280_temperature;BME280_humidity;BME280_pressure;Samples;Min_cycle;Max_cycle;Signal;HPM_P1;HPM_P2
2023/04/02 00:01:37;;;;;;;3.90;2.00;;;;;;;;;;107988;278;42135;-30
2023/04/02 00:04:25;;;;;;;4.10;2.00;;;;;;;;;;108025;278;38769;-30
2023/04/02 00:07:32;;;;;;;4.00;2.00;;;;;;;;;;108045;278;39721;-30
2023/04/02 00:10:15;;;;;;;4.00;2.00;;;;;;;;;;108015;274;44001;-29
2023/04/02 00:13:04;;;;;;;4.10;1.90;;;;;;;;;;107953;275;43550;-29
2023/04/02 00:15:41;;;;;;;3.50;1.90;;;;;;;;;;108049;278;38588;-29
2023/04/02 00:18:18;;;;;;;4.20;2.10;;;;;;;;;;108025;278;39476;-30
2023/04/02 00:21:03;;;;;;;4.10;2.20;;;;;;;;;;107982;278;44158;-29
2023/04/02 00:23:42;;;;;;;3.80;1.90;;;;;;;;;;108041;276;48729;-29
2023/04/02 00:26:32;;;;;;;4.00;2.10;;;;;;;;;;108063;276;39038;-30
2023/04/02 00:29:12;;;;;;;4.00;1.90;;;;;;;;;;108034;269;39694;-30
2023/04/02 00:31:49;;;;;;;4.00;2.10;;;;;;;;;;108031;269;44224;-29
2023/04/02 00:34:30;;;;;;;3.90;2.00;;;;;;;;;;107995;277;42260;-29
2023/04/02 00:37:10;;;;;;;3.80;1.90;;;;;;;;;;108048;276;38563;-29
2023/04/02 00:39:46;;;;;;;4.10;2.20;;;;;;;;;;108036;269;39642;-30
2023/04/02 00:42:25;;;;;;;4.00;2.00;;;;;;;;;;108032;273;43109;-30
2023/04/02 00:45:05;;;;;;;3.80;2.00;;;;;;;;;;108055;276;42155;-29
2023/04/02 00:47:40;;;;;;;3.90;2.10;;;;;;;;;;108066;276;38564;-30
2023/04/02 00:50:30;;;;;;;3.90;1.80;;;;;;;;;;108082;276;39855;-29
2023/04/02 00:53:22;;;;;;;3.60;2.00;;;;;;;;;;107964;269;42936;-30
2023/04/02 00:55:59;;;;;;;3.80;2.10;;;;;;;;;;108045;276;42170;-30
2023/04/02 00:58:36;;;;;;;4.30;2.20;;;;;;;;;;108063;276;39911;-30
2023/04/02 01:01:24;;;;;;;4.30;2.10;;;;;;;;;;108078;273;39759;-30
2023/04/02 01:04:00;;;;;;;3.80;2.00;;;;;;;;;;108005;274;43973;-30
2023/04/02 01:06:39;;;;;;;4.20;2.00;;;;;;;;;;108043;276;43210;-30
2023/04/02 01:09:36;;;;;;;3.70;1.90;;;;;;;;;;108058;277;38749;-30
2023/04/02 01:12:50;;;;;;;3.70;2.10;;;;;;;;;;108031;277;39730;-30
2023/04/02 01:15:31;;;;;;;4.10;2.10;;;;;;;;;;108057;274;48962;-30
2023/04/02 01:18:25;;;;;;;3.60;1.80;;;;;;;;;;108047;277;42251;-30
2023/04/02 01:21:35;;;;;;;3.80;2.00;;;;;;;;;;108007;277;38922;-30
2023/04/02 01:24:12;;;;;;;3.80;1.90;;;;;;;;;;107985;277;40071;-30
2023/04/02 01:27:01;;;;;;;3.90;2.00;;;;;;;;;;108002;269;43195;-30
2023/04/02 01:29:39;;;;;;;3.80;2.10;;;;;;;;;;108006;277;42448;-29
2023/04/02 01:32:17;;;;;;;3.50;1.80;;;;;;;;;;108048;269;38780;-29
2023/04/02 01:34:54;;;;;;;3.90;2.10;;;;;;;;;;108031;277;39671;-29
2023/04/02 01:37:39;;;;;;;3.90;2.10;;;;;;;;;;107066;277;896739;-30
2023/04/02 01:40:34;;;;;;;4.10;1.90;;;;;;;;;;107999;277;43392;-30
2023/04/02 01:43:18;;;;;;;3.50;1.70;;;;;;;;;;108069;269;38760;-30
2023/04/02 01:45:59;;;;;;;3.80;1.90;;;;;;;;;;108040;269;45402;-32
2023/04/02 01:48:34;;;;;;;3.70;1.90;;;;;;;;;;108067;277;42814;-30
2023/04/02 01:51:27;;;;;;;3.30;1.70;;;;;;;;;;108073;269;43543;-31
2023/04/02 01:54:07;;;;;;;3.80;1.90;;;;;;;;;;108010;277;38765;-30
2023/04/02 01:56:45;;;;;;;3.50;1.80;;;;;;;;;;108069;277;39848;-31
2023/04/02 01:59:23;;;;;;;3.80;1.90;;;;;;;;;;108083;269;42889;-30
2023/04/02 02:02:02;;;;;;;3.40;1.80;;;;;;;;;;108098;269;42258;-31
2023/04/02 02:04:37;;;;;;;3.50;1.80;;;;;;;;;;108043;273;38747;-31
2023/04/02 02:07:19;;;;;;;3.40;1.60;;;;;;;;;;108032;273;39516;-31
2023/04/02 02:09:54;;;;;;;3.80;2.00;;;;;;;;;;108116;276;42934;-31
2023/04/02 02:12:31;;;;;;;3.80;2.00;;;;;;;;;;108063;277;42143;-31
2023/04/02 02:15:08;;;;;;;3.90;1.90;;;;;;;;;;108070;273;38899;-30
2023/04/02 02:17:44;;;;;;;3.90;1.90;;;;;;;;;;108082;269;39728;-30
2023/04/02 02:20:21;;;;;;;3.50;1.70;;;;;;;;;;108063;269;42950;-30
2023/04/02 02:22:58;;;;;;;3.60;1.80;;;;;;;;;;108092;277;42141;-31
2023/04/02 02:25:37;;;;;;;3.50;1.70;;;;;;;;;;108049;277;38765;-30
2023/04/02 02:28:17;;;;;;;3.40;1.80;;;;;;;;;;108047;273;40021;-30
2023/04/02 02:31:00;;;;;;;3.60;1.80;;;;;;;;;;108085;269;42883;-31
2023/04/02 02:33:39;;;;;;;4.20;1.70;;;;;;;;;;108101;277;41906;-31
2023/04/02 02:36:22;;;;;;;3.40;1.90;;;;;;;;;;108064;277;39927;-30
2023/04/02 02:39:03;;;;;;;3.40;1.80;;;;;;;;;;108072;276;39687;-30
2023/04/02 02:41:44;;;;;;;3.20;1.60;;;;;;;;;;108070;273;43006;-30
2023/04/02 02:44:22;;;;;;;3.70;2.00;;;;;;;;;;108054;273;42389;-30
2023/04/02 02:47:00;;;;;;;3.20;1.70;;;;;;;;;;108043;273;39009;-30
2023/04/02 02:49:37;;;;;;;3.60;1.90;;;;;;;;;;108067;269;39688;-30
2023/04/02 02:52:19;;;;;;;3.60;1.80;;;;;;;;;;108093;276;42837;-30
2023/04/02 02:55:03;;;;;;;3.30;1.70;;;;;;;;;;108044;276;43263;-30
2023/04/02 02:57:45;;;;;;;3.50;1.80;;;;;;;;;;107980;276;175688;-30
2023/04/02 03:00:23;;;;;;;3.10;1.60;;;;;;;;;;108044;273;39723;-30
2023/04/02 03:03:01;;;;;;;3.30;1.60;;;;;;;;;;108058;269;42869;-30
2023/04/02 03:05:37;;;;;;;3.50;1.70;;;;;;;;;;108042;276;42185;-30
2023/04/02 03:08:19;;;;;;;3.40;1.60;;;;;;;;;;108062;269;38918;-30
2023/04/02 03:10:59;;;;;;;3.50;1.70;;;;;;;;;;108082;269;40945;-30
2023/04/02 03:13:38;;;;;;;3.40;1.80;;;;;;;;;;108108;269;42609;-31
2023/04/02 03:16:20;;;;;;;3.80;1.80;;;;;;;;;;108026;269;41222;-31
2023/04/02 03:19:02;;;;;;;3.50;1.70;;;;;;;;;;108092;277;38892;-31
2023/04/02 03:21:47;;;;;;;3.60;1.90;;;;;;;;;;108057;273;39710;-31
2023/04/02 03:24:31;;;;;;;3.70;1.90;;;;;;;;;;108052;273;42882;-31
2023/04/02 03:27:13;;;;;;;3.20;1.70;;;;;;;;;;108026;276;42168;-30
2023/04/02 03:30:04;;;;;;;3.40;1.70;;;;;;;;;;108072;273;38841;-30
2023/04/02 03:32:43;;;;;;;3.30;1.90;;;;;;;;;;107993;269;175688;-30
2023/04/02 03:35:27;;;;;;;3.80;2.00;;;;;;;;;;107930;277;175686;-31
2023/04/02 03:38:07;;;;;;;4.10;1.90;;;;;;;;;;108022;269;42185;-31
2023/04/02 03:40:49;;;;;;;3.40;1.70;;;;;;;;;;108082;277;38810;-31
2023/04/02 03:43:31;;;;;;;3.90;1.90;;;;;;;;;;108086;269;39666;-30
2023/04/02 03:46:15;;;;;;;;;;;;;;;;;;108026;269;42914;-30
2023/04/02 03:48:54;;;;;;;3.50;1.80;;;;;;;;;;108050;273;48123;-30
2023/04/02 03:51:32;;;;;;;3.60;2.00;;;;;;;;;;108042;276;38775;-30
2023/04/02 03:54:13;;;;;;;3.30;1.80;;;;;;;;;;108074;269;39447;-31
2023/04/02 03:56:49;;;;;;;4.00;2.00;;;;;;;;;;108000;273;43272;-31
2023/04/02 03:59:33;;;;;;;3.90;1.90;;;;;;;;;;108056;269;42140;-30
2023/04/02 04:02:24;;;;;;;3.90;2.00;;;;;;;;;;108052;269;39089;-30
2023/04/02 04:05:04;;;;;;;3.90;2.00;;;;;;;;;;108052;269;39792;-30
2023/04/02 04:07:45;;;;;;;3.80;2.10;;;;;;;;;;108019;269;42930;-30
2023/04/02 04:10:25;;;;;;;4.00;2.20;;;;;;;;;;108068;269;41852;-30
2023/04/02 04:13:09;;;;;;;4.00;2.10;;;;;;;;;;108013;269;38747;-30
2023/04/02 04:15:51;;;;;;;3.90;2.00;;;;;;;;;;108034;269;39434;-31
2023/04/02 04:18:36;;;;;;;3.70;1.90;;;;;;;;;;108051;269;42899;-31
2023/04/02 04:21:28;;;;;;;3.80;2.10;;;;;;;;;;108036;276;43244;-31
2023/04/02 04:24:12;;;;;;;3.80;2.20;;;;;;;;;;108042;276;38833;-31
2023/04/02 04:26:54;;;;;;;3.90;2.10;;;;;;;;;;108064;276;41184;-30
2023/04/02 04:29:44;;;;;;;3.90;2.30;;;;;;;;;;108150;277;49650;-30
2023/04/02 04:32:31;;;;;;;3.70;2.00;;;;;;;;;;108083;276;42113;-30
2023/04/02 04:35:17;;;;;;;4.00;2.20;;;;;;;;;;108037;269;38876;-30
2023/04/02 04:37:58;;;;;;;3.90;2.00;;;;;;;;;;108074;274;39766;-30
2023/04/02 04:40:36;;;;;;;4.00;2.30;;;;;;;;;;108006;278;42827;-30
2023/04/02 04:43:18;;;;;;;3.80;2.10;;;;;;;;;;108069;276;43455;-30
2023/04/02 04:46:02;;;;;;;4.00;2.10;;;;;;;;;;108073;269;40109;-30
2023/04/02 04:48:47;;;;;;;3.70;1.90;;;;;;;;;;108035;269;39773;-30
2023/04/02 04:51:28;;;;;;;3.70;1.90;;;;;;;;;;108061;276;43113;-29
2023/04/02 04:54:10;;;;;;;4.10;2.00;;;;;;;;;;108082;273;42840;-29
2023/04/02 04:56:54;;;;;;;4.20;2.30;;;;;;;;;;108052;276;38825;-29
2023/04/02 04:59:32;;;;;;;3.80;2.20;;;;;;;;;;108028;270;41929;-29
2023/04/02 05:02:14;;;;;;;3.90;2.10;;;;;;;;;;108088;273;42959;-30
2023/04/02 05:04:54;;;;;;;3.90;2.10;;;;;;;;;;108035;276;42118;-30
2023/04/02 05:07:38;;;;;;;3.70;2.00;;;;;;;;;;108064;276;38828;-30
2023/04/02 05:10:23;;;;;;;4.00;2.30;;;;;;;;;;108016;276;39484;-30
2023/04/02 05:13:07;;;;;;;3.90;2.20;;;;;;;;;;108070;277;43040;-30
2023/04/02 05:15:53;;;;;;;4.10;2.30;;;;;;;;;;108048;277;42150;-30
2023/04/02 05:18:34;;;;;;;3.80;2.10;;;;;;;;;;108026;277;39928;-30
2023/04/02 05:21:16;;;;;;;4.00;2.30;;;;;;;;;;107965;269;175681;-30
2023/04/02 05:24:03;;;;;;;3.90;2.20;;;;;;;;;;108049;273;43974;-29
2023/04/02 05:26:44;;;;;;;3.90;2.20;;;;;;;;;;108044;278;42476;-29
2023/04/02 05:29:23;;;;;;;4.00;2.40;;;;;;;;;;108005;270;38777;-29
2023/04/02 05:32:06;;;;;;;4.00;2.30;;;;;;;;;;108041;274;41337;-29
2023/04/02 05:34:48;;;;;;;4.10;2.40;;;;;;;;;;108045;270;42915;-29
2023/04/02 05:37:30;;;;;;;4.20;2.20;;;;;;;;;;107376;274;894348;-29
2023/04/02 05:40:19;;;;;;;4.00;2.20;;;;;;;;;;108031;270;38928;-31
2023/04/02 05:42:57;;;;;;;4.10;2.40;;;;;;;;;;108022;274;39653;-31
2023/04/02 05:45:37;;;;;;;3.80;2.20;;;;;;;;;;107996;278;42955;-32
2023/04/02 05:48:23;;;;;;;4.40;2.30;;;;;;;;;;108011;270;42089;-30
2023/04/02 05:51:00;;;;;;;4.10;2.40;;;;;;;;;;108019;278;38799;-30
2023/04/02 05:53:39;;;;;;;4.30;2.50;;;;;;;;;;108031;270;41027;-30
2023/04/02 05:56:28;;;;;;;4.10;2.30;;;;;;;;;;108063;278;42792;-30
2023/04/02 05:59:14;;;;;;;4.00;2.20;;;;;;;;;;107983;274;43275;-30
2023/04/02 06:01:54;;;;;;;4.40;2.50;;;;;;;;;;107995;274;46058;-31
2023/04/02 06:04:34;;;;;;;4.00;2.30;;;;;;;;;;108085;274;40232;-31
2023/04/02 06:07:13;;;;;;;4.30;2.50;;;;;;;;;;108084;274;42947;-31
2023/04/02 06:09:53;;;;;;;4.10;2.30;;;;;;;;;;108055;273;42204;-30
2023/04/02 06:12:35;;;;;;;4.10;2.50;;;;;;;;;;108084;274;38919;-31
2023/04/02 06:15:20;;;;;;;4.30;2.40;;;;;;;;;;108086;274;39701;-31
2023/04/02 06:18:05;;;;;;;4.00;2.40;;;;;;;;;;108042;278;42711;-30
2023/04/02 06:20:42;;;;;;;4.00;2.40;;;;;;;;;;108014;278;42289;-31
2023/04/02 06:23:23;;;;;;;4.50;2.50;;;;;;;;;;108047;278;38846;-30
2023/04/02 06:26:03;;;;;;;4.00;2.30;;;;;;;;;;108067;270;39465;-30
2023/04/02 06:28:45;;;;;;;3.80;2.30;;;;;;;;;;108073;270;42922;-30
2023/04/02 06:31:30;;;;;;;4.00;2.30;;;;;;;;;;108011;278;41846;-30
2023/04/02 06:34:14;;;;;;;4.10;2.20;;;;;;;;;;108028;278;38820;-31
2023/04/02 06:36:50;;;;;;;4.10;2.30;;;;;;;;;;108034;273;39733;-31
2023/04/02 06:39:27;;;;;;;4.00;2.30;;;;;;;;;;108054;274;43356;-29
2023/04/02 06:42:10;;;;;;;3.90;2.10;;;;;;;;;;108003;278;43417;-29
2023/04/02 06:44:45;;;;;;;3.90;2.40;;;;;;;;;;108033;278;38809;-29
2023/04/02 06:47:37;;;;;;;3.90;2.30;;;;;;;;;;108016;278;40979;-29
2023/04/02 06:50:21;;;;;;;3.80;2.00;;;;;;;;;;108006;270;42920;-30
2023/04/02 06:53:03;;;;;;;4.60;2.20;;;;;;;;;;108012;270;48403;-29
2023/04/02 06:55:49;;;;;;;3.60;2.00;;;;;;;;;;108001;277;38791;-30
2023/04/02 06:58:26;;;;;;;3.80;2.00;;;;;;;;;;107990;270;39866;-30
2023/04/02 07:01:02;;;;;;;4.50;2.20;;;;;;;;;;107796;270;196177;-29
2023/04/02 07:03:38;;;;;;;4.10;2.20;;;;;;;;;;107955;270;42577;-29
2023/04/02 07:06:18;;;;;;;4.20;2.10;;;;;;;;;;108004;273;38895;-29
2023/04/02 07:08:53;;;;;;;4.50;2.10;;;;;;;;;;107898;270;175692;-29
2023/04/02 07:11:29;;;;;;;4.00;2.10;;;;;;;;;;108011;270;43873;-29
2023/04/02 07:14:13;;;;;;;3.80;2.10;;;;;;;;;;107993;270;42133;-29
2023/04/02 07:16:48;;;;;;;4.00;2.20;;;;;;;;;;108022;277;38754;-29
2023/04/02 07:19:24;;;;;;;3.90;2.20;;;;;;;;;;108019;277;40018;-29
2023/04/02 07:22:00;;;;;;;4.20;2.20;;;;;;;;;;107991;277;42891;-29
2023/04/02 07:24:36;;;;;;;3.90;2.00;;;;;;;;;;107877;277;175715;-29
2023/04/02 07:27:11;;;;;;;3.90;2.10;;;;;;;;;;107891;277;175368;-30
2023/04/02 07:29:45;;;;;;;4.20;2.20;;;;;;;;;;107989;273;39744;-29
2023/04/02 07:32:22;;;;;;;4.00;2.20;;;;;;;;;;108022;277;44130;-30
2023/04/02 07:34:57;;;;;;;3.80;1.80;;;;;;;;;;108055;277;44377;-29
2023/04/02 07:37:35;;;;;;;5.70;3.50;;;;;;;;;;108019;270;38841;-29
2023/04/02 07:40:17;;;;;;;5.50;3.60;;;;;;;;;;108002;270;39848;-29
2023/04/02 07:42:52;;;;;;;5.30;3.50;;;;;;;;;;108034;277;42910;-29
2023/04/02 07:45:27;;;;;;;5.10;3.40;;;;;;;;;;108021;277;41955;-30
2023/04/02 07:48:06;;;;;;;5.80;3.50;;;;;;;;;;107996;277;38794;-30
2023/04/02 07:50:43;;;;;;;5.70;3.80;;;;;;;;;;108013;277;40793;-30
2023/04/02 07:53:30;;;;;;;5.40;3.60;;;;;;;;;;108001;277;45038;-30
2023/04/02 07:56:14;;;;;;;5.70;3.50;;;;;;;;;;108015;270;42172;-29
2023/04/02 07:58:48;;;;;;;5.10;3.40;;;;;;;;;;107998;273;39219;-29
2023/04/02 08:01:26;;;;;;;5.70;3.60;;;;;;;;;;107965;277;39794;-29
2023/04/02 08:04:06;;;;;;;5.80;3.70;;;;;;;;;;107989;273;42801;-29
2023/04/02 08:06:46;;;;;;;5.20;3.40;;;;;;;;;;107908;273;175701;-30
2023/04/02 08:09:22;;;;;;;5.90;3.30;;;;;;;;;;107999;277;38878;-30
2023/04/02 08:12:00;;;;;;;5.50;3.40;;;;;;;;;;108019;277;39729;-30
2023/04/02 08:14:33;;;;;;;5.10;3.00;;;;;;;;;;107994;277;49012;-30
2023/04/02 08:17:07;;;;;;;5.60;3.50;;;;;;;;;;108002;277;42149;-30
2023/04/02 08:19:44;;;;;;;5.10;3.20;;;;;;;;;;108010;278;38852;-30
2023/04/02 08:22:28;;;;;;;5.30;3.30;;;;;;;;;;107985;277;39463;-30
2023/04/02 08:25:01;;;;;;;5.60;3.20;;;;;;;;;;108070;276;44096;-30
2023/04/02 08:27:37;;;;;;;6.00;3.40;;;;;;;;;;108078;276;42120;-30
2023/04/02 08:30:17;;;;;;;5.80;3.50;;;;;;;;;;108024;269;39931;-30
2023/04/02 08:32:51;;;;;;;4.80;3.10;;;;;;;;;;108077;269;39709;-30
2023/04/02 08:35:29;;;;;;;4.80;3.10;;;;;;;;;;108082;273;42906;-29
2023/04/02 08:38:08;;;;;;;5.50;3.40;;;;;;;;;;107956;269;175649;-29
2023/04/02 08:40:47;;;;;;;5.10;3.30;;;;;;;;;;108086;277;39181;-29
2023/04/02 08:43:58;;;;;;;5.20;3.60;;;;;;;;;;107994;277;39649;-29
2023/04/02 08:46:44;;;;;;;5.20;3.30;;;;;;;;;;108035;276;42808;-30
2023/04/02 08:49:23;;;;;;;6.80;3.50;;;;;;;;;;108061;268;42249;-32
2023/04/02 08:51:58;;;;;;;6.20;3.40;;;;;;;;;;107993;277;38791;-31
2023/04/02 08:54:42;;;;;;;6.10;3.60;;;;;;;;;;108002;269;39491;-31
2023/04/02 08:57:27;;;;;;;6.10;3.60;;;;;;;;;;108087;277;42975;-31
2023/04/02 09:00:13;;;;;;;5.80;3.30;;;;;;;;;;108059;276;42237;-32
2023/04/02 09:02:55;;;;;;;6.60;3.50;;;;;;;;;;107999;269;38754;-32
2023/04/02 09:05:36;;;;;;;6.30;3.60;;;;;;;;;;108129;276;45467;-30
2023/04/02 09:08:23;;;;;;;6.20;3.40;;;;;;;;;;108020;268;43454;-31
2023/04/02 09:11:06;;;;;;;5.40;3.20;;;;;;;;;;107919;268;175646;-31
2023/04/02 09:13:47;;;;;;;5.10;3.30;;;;;;;;;;107979;268;38787;-31
2023/04/02 09:16:37;;;;;;;12.30;6.00;;;;;;;;;;108056;268;41348;-31
2023/04/02 09:19:21;;;;;;;11.00;5.70;;;;;;;;;;107997;273;43985;-31
2023/04/02 09:22:10;;;;;;;10.50;5.20;;;;;;;;;;108092;277;43269;-31
2023/04/02 09:24:43;;;;;;;9.60;5.10;;;;;;;;;;107990;273;38936;-31
2023/04/02 09:27:32;;;;;;;9.60;5.00;;;;;;;;;;108037;277;39745;-31
2023/04/02 09:30:20;;;;;;;8.80;4.60;;;;;;;;;;107994;270;42836;-31
2023/04/02 09:32:56;;;;;;;10.20;5.60;;;;;;;;;;108017;272;42247;-30
2023/04/02 09:35:36;;;;;;;9.00;4.80;;;;;;;;;;107314;273;895795;-30
2023/04/02 09:38:30;;;;;;;9.60;5.10;;;;;;;;;;107721;277;428608;-30
2023/04/02 09:41:09;;;;;;;8.80;4.90;;;;;;;;;;107973;277;42564;-30
2023/04/02 09:43:43;;;;;;;8.50;4.60;;;;;;;;;;107976;270;43199;-29
2023/04/02 09:46:25;;;;;;;8.70;4.60;;;;;;;;;;108001;269;38894;-30
2023/04/02 09:49:02;;;;;;;9.00;4.40;;;;;;;;;;108010;270;41047;-30
2023/04/02 09:51:37;;;;;;;8.80;4.60;;;;;;;;;;108010;277;43168;-30
2023/04/02 09:54:16;;;;;;;9.10;4.60;;;;;;;;;;108010;270;41883;-30
2023/04/02 09:57:17;;;;;;;8.70;4.70;;;;;;;;;;108041;272;45398;-29
2023/04/02 10:00:11;;;;;;;7.90;4.30;;;;;;;;;;107988;270;41896;-30
2023/04/02 10:03:24;;;;;;;7.30;3.90;;;;;;;;;;108034;277;42819;-30
2023/04/02 10:06:10;;;;;;;7.60;3.90;;;;;;;;;;107976;273;43229;-30
2023/04/02 10:08:48;;;;;;;7.40;4.00;;;;;;;;;;107907;277;177702;-30
2023/04/02 10:11:30;;;;;;;7.70;4.00;;;;;;;;;;108017;277;39902;-30
2023/04/02 10:14:24;;;;;;;7.50;3.90;;;;;;;;;;107991;277;42852;-29
2023/04/02 10:17:04;;;;;;;6.70;3.90;;;;;;;;;;108014;277;44683;-29
2023/04/02 10:19:41;;;;;;;6.70;4.00;;;;;;;;;;108000;277;39926;-30
2023/04/02 10:22:19;;;;;;;7.90;3.70;;;;;;;;;;108034;270;39817;-29
2023/04/02 10:24:54;;;;;;;7.30;3.50;;;;;;;;;;108009;269;42831;-29
2023/04/02 10:27:36;;;;;;;6.70;3.50;;;;;;;;;;107914;277;175700;-29
2023/04/02 10:30:26;;;;;;;6.90;3.60;;;;;;;;;;108027;277;38776;-29
2023/04/02 10:33:05;;;;;;;6.50;3.30;;;;;;;;;;108034;277;39769;-29
2023/04/02 10:35:50;;;;;;;6.40;3.40;;;;;;;;;;108010;273;42936;-29
2023/04/02 10:38:44;;;;;;;6.30;3.40;;;;;;;;;;107993;277;42235;-30
2023/04/02 10:41:44;;;;;;;6.60;3.50;;;;;;;;;;108009;277;40086;-30
2023/04/02 10:44:44;;;;;;;7.20;3.60;;;;;;;;;;107983;277;39732;-30
2023/04/02 10:47:32;;;;;;;6.00;3.20;;;;;;;;;;107964;277;43132;-30
2023/04/02 10:50:31;;;;;;;6.00;3.30;;;;;;;;;;108029;273;42168;-31
2023/04/02 10:53:14;;;;;;;6.70;3.40;;;;;;;;;;108013;269;38725;-31
2023/04/02 10:55:54;;;;;;;5.40;3.10;;;;;;;;;;107996;277;39706;-31
2023/04/02 10:58:30;;;;;;;5.50;3.20;;;;;;;;;;107996;269;43968;-30
2023/04/02 11:01:10;;;;;;;5.40;3.10;;;;;;;;;;107951;269;43212;-30
2023/04/02 11:03:48;;;;;;;7.00;3.40;;;;;;;;;;108058;273;38759;-31
2023/04/02 11:06:27;;;;;;;8.30;4.10;;;;;;;;;;107987;269;39724;-31
2023/04/02 11:09:05;;;;;;;9.10;4.70;;;;;;;;;;108031;277;42842;-31
2023/04/02 11:11:43;;;;;;;8.60;4.70;;;;;;;;;;108027;273;42047;-30
2023/04/02 11:14:23;;;;;;;10.30;4.50;;;;;;;;;;107997;277;39823;-30
2023/04/02 11:17:03;;;;;;;7.00;4.20;;;;;;;;;;107973;277;39500;-30
2023/04/02 11:19:39;;;;;;;8.90;4.40;;;;;;;;;;108019;277;42814;-31
2023/04/02 11:22:22;;;;;;;7.70;4.20;;;;;;;;;;107983;269;42119;-31
2023/04/02 11:24:58;;;;;;;8.80;4.40;;;;;;;;;;107873;277;193184;-30
2023/04/02 11:27:34;;;;;;;8.60;4.00;;;;;;;;;;107971;270;39476;-31
2023/04/02 11:30:27;;;;;;;7.80;4.30;;;;;;;;;;107990;277;44937;-31
2023/04/02 11:33:40;;;;;;;7.10;3.90;;;;;;;;;;107998;273;42229;-31
2023/04/02 11:37:02;;;;;;;8.80;3.80;;;;;;;;;;108022;277;39919;-30
2023/04/02 11:39:58;;;;;;;8.30;4.20;;;;;;;;;;107979;277;47740;-30
2023/04/02 11:42:34;;;;;;;8.50;4.20;;;;;;;;;;108047;277;42906;-30
2023/04/02 11:45:51;;;;;;;7.00;3.80;;;;;;;;;;108044;277;42183;-30
2023/04/02 11:48:35;;;;;;;8.00;3.80;;;;;;;;;;107986;273;40098;-31
2023/04/02 11:51:50;;;;;;;7.40;3.90;;;;;;;;;;108046;270;39689;-30
2023/04/02 11:54:40;;;;;;;8.30;4.00;;;;;;;;;;108003;277;42883;-30
2023/04/02 11:57:29;;;;;;;6.60;3.70;;;;;;;;;;108024;277;42324;-30
2023/04/02 12:00:24;;;;;;;6.90;3.80;;;;;;;;;;108001;273;44424;-30
2023/04/02 12:03:19;;;;;;;7.20;3.70;;;;;;;;;;107889;277;175109;-31
2023/04/02 12:06:05;;;;;;;7.20;3.80;;;;;;;;;;108011;273;42855;-31
2023/04/02 12:08:54;;;;;;;6.60;3.70;;;;;;;;;;107936;270;43245;-30
2023/04/02 12:11:39;;;;;;;7.40;4.00;;;;;;;;;;108002;277;38707;-30
2023/04/02 12:14:44;;;;;;;7.30;3.70;;;;;;;;;;108020;273;40873;-31
2023/04/02 12:17:30;;;;;;;6.60;3.90;;;;;;;;;;108002;277;42624;-30
2023/04/02 12:20:20;;;;;;;7.40;3.80;;;;;;;;;;107877;277;175627;-30
2023/04/02 12:22:58;;;;;;;6.70;3.60;;;;;;;;;;107963;277;38833;-30
2023/04/02 12:25:39;;;;;;;6.50;3.60;;;;;;;;;;108022;277;39750;-30
2023/04/02 12:28:21;;;;;;;6.50;3.60;;;;;;;;;;108006;273;42928;-30
2023/04/02 12:31:04;;;;;;;;;;;;;;;;;;108125;277;49567;-30
2023/04/02 12:33:44;;;;;;;6.30;3.70;;;;;;;;;;107926;277;175650;-30
2023/04/02 12:36:26;;;;;;;6.90;3.60;;;;;;;;;;108033;276;41908;-30
2023/04/02 12:39:04;;;;;;;6.20;3.60;;;;;;;;;;107960;268;42902;-30
2023/04/02 12:41:40;;;;;;;6.10;3.60;;;;;;;;;;108070;277;41853;-30
2023/04/02 12:44:20;;;;;;;6.70;3.80;;;;;;;;;;108072;269;40225;-30
2023/04/02 12:46:57;;;;;;;5.70;3.30;;;;;;;;;;108038;273;40725;-30
2023/04/02 12:49:37;;;;;;;6.80;3.60;;;;;;;;;;108065;277;42803;-30
2023/04/02 12:52:17;;;;;;;5.50;3.20;;;;;;;;;;108067;269;43292;-30
2023/04/02 12:54:53;;;;;;;6.00;3.70;;;;;;;;;;108111;277;38956;-31
2023/04/02 12:57:38;;;;;;;5.80;3.50;;;;;;;;;;108042;277;39442;-31
2023/04/02 13:00:37;;;;;;;5.90;3.40;;;;;;;;;;108001;273;42596;-31
2023/04/02 13:03:29;;;;;;;6.60;3.50;;;;;;;;;;107393;277;915437;-31
2023/04/02 13:06:21;;;;;;;5.20;3.20;;;;;;;;;;107985;268;38921;-31
2023/04/02 13:08:56;;;;;;;5.90;3.20;;;;;;;;;;108024;273;39745;-31
2023/04/02 13:11:39;;;;;;;6.60;3.40;;;;;;;;;;107958;268;42953;-31
2023/04/02 13:14:25;;;;;;;5.80;3.30;;;;;;;;;;108039;276;42256;-31
2023/04/02 13:17:00;;;;;;;5.70;3.10;;;;;;;;;;108007;268;38796;-31
2023/04/02 13:19:35;;;;;;;6.30;3.10;;;;;;;;;;107968;273;40841;-31
2023/04/02 13:22:35;;;;;;;5.90;3.30;;;;;;;;;;108004;268;51288;-31
2023/04/02 13:25:10;;;;;;;6.00;3.50;;;;;;;;;;107975;268;42159;-31
2023/04/02 13:27:47;;;;;;;6.00;3.50;;;;;;;;;;108009;268;38914;-31
2023/04/02 13:30:27;;;;;;;6.30;3.40;;;;;;;;;;107958;268;39960;-31
2023/04/02 13:33:00;;;;;;;6.70;3.40;;;;;;;;;;108044;276;42579;-31
2023/04/02 13:35:38;;;;;;;6.20;3.30;;;;;;;;;;108024;276;42321;-31
2023/04/02 13:38:12;;;;;;;6.50;3.50;;;;;;;;;;108029;276;39868;-31
2023/04/02 13:40:47;;;;;;;5.80;3.30;;;;;;;;;;107966;276;39723;-31
2023/04/02 13:43:26;;;;;;;5.90;3.60;;;;;;;;;;108018;268;42782;-31
2023/04/02 13:46:01;;;;;;;7.30;3.30;;;;;;;;;;108031;276;42188;-31
2023/04/02 13:48:36;;;;;;;5.10;3.20;;;;;;;;;;108046;276;39944;-31
2023/04/02 13:51:16;;;;;;;6.00;3.20;;;;;;;;;;108004;273;39460;-31
2023/04/02 13:53:56;;;;;;;5.40;3.10;;;;;;;;;;108083;273;42781;-31
2023/04/02 13:56:32;;;;;;;5.50;3.30;;;;;;;;;;108018;268;42201;-31
2023/04/02 13:59:06;;;;;;;5.50;3.50;;;;;;;;;;108084;277;38749;-31
2023/04/02 14:01:41;;;;;;;5.30;3.40;;;;;;;;;;108056;268;39770;-31
2023/04/02 14:04:25;;;;;;;6.20;3.60;;;;;;;;;;108022;268;44305;-31
2023/04/02 14:07:37;;;;;;;5.40;3.40;;;;;;;;;;108036;268;44468;-31
2023/04/02 14:10:29;;;;;;;5.30;3.10;;;;;;;;;;108115;268;38773;-31
2023/04/02 14:13:36;;;;;;;6.20;3.20;;;;;;;;;;107991;268;46409;-31
2023/04/02 14:16:31;;;;;;;5.40;3.00;;;;;;;;;;108038;268;42938;-31
2023/04/02 14:19:21;;;;;;;5.20;3.00;;;;;;;;;;108025;268;42443;-31
2023/04/02 14:22:10;;;;;;;5.10;3.10;;;;;;;;;;108007;268;39137;-31
2023/04/02 14:24:56;;;;;;;4.60;2.90;;;;;;;;;;107939;277;39452;-31
2023/04/02 14:27:46;;;;;;;5.50;3.10;;;;;;;;;;107919;270;42768;-31
2023/04/02 14:30:31;;;;;;;5.40;3.10;;;;;;;;;;107992;273;42414;-31
2023/04/02 14:33:13;;;;;;;4.50;2.80;;;;;;;;;;107929;277;38751;-31
2023/04/02 14:35:56;;;;;;;4.60;2.80;;;;;;;;;;107935;277;39934;-31
2023/04/02 14:38:39;;;;;;;4.80;2.60;;;;;;;;;;107935;277;42961;-31
2023/04/02 14:41:23;;;;;;;5.10;2.80;;;;;;;;;;107994;270;42138;-31
2023/04/02 14:44:02;;;;;;;4.80;2.80;;;;;;;;;;107884;273;44428;-31
2023/04/02 14:46:38;;;;;;;4.80;2.60;;;;;;;;;;107913;277;39608;-31
2023/04/02 14:49:27;;;;;;;4.60;2.70;;;;;;;;;;107937;270;42567;-31
2023/04/02 14:52:05;;;;;;;4.60;2.60;;;;;;;;;;107914;270;42151;-30
2023/04/02 14:54:50;;;;;;;4.60;2.60;;;;;;;;;;107967;277;38780;-30
2023/04/02 14:57:31;;;;;;;4.40;2.30;;;;;;;;;;107931;277;41086;-30
2023/04/02 15:00:27;;;;;;;5.00;2.60;;;;;;;;;;107967;277;42833;-30
2023/04/02 15:03:10;;;;;;;5.00;2.50;;;;;;;;;;107958;277;42155;-30
2023/04/02 15:05:48;;;;;;;4.60;2.50;;;;;;;;;;107929;277;39023;-30
2023/04/02 15:08:27;;;;;;;4.10;2.40;;;;;;;;;;107927;270;40130;-30
2023/04/02 15:11:07;;;;;;;5.00;2.60;;;;;;;;;;107927;273;43862;-30
2023/04/02 15:13:48;;;;;;;4.40;2.30;;;;;;;;;;107889;273;42239;-30
2023/04/02 15:16:27;;;;;;;4.70;2.40;;;;;;;;;;107960;270;38776;-30
2023/04/02 15:19:02;;;;;;;4.70;2.50;;;;;;;;;;107945;277;40882;-30
2023/04/02 15:21:54;;;;;;;4.50;2.20;;;;;;;;;;107899;270;42825;-30
2023/04/02 15:24:46;;;;;;;4.30;2.30;;;;;;;;;;107895;273;42160;-30
2023/04/02 15:27:35;;;;;;;4.70;2.50;;;;;;;;;;107940;273;38779;-30
2023/04/02 15:30:18;;;;;;;4.90;2.30;;;;;;;;;;107845;273;175640;-30
2023/04/02 15:32:53;;;;;;;4.40;2.30;;;;;;;;;;107930;273;44333;-30
2023/04/02 15:35:39;;;;;;;4.20;2.40;;;;;;;;;;107932;273;42274;-30
2023/04/02 15:38:18;;;;;;;5.00;2.40;;;;;;;;;;107904;277;38788;-30
2023/04/02 15:41:02;;;;;;;4.60;2.30;;;;;;;;;;107895;277;40769;-30
2023/04/02 15:43:47;;;;;;;4.70;2.40;;;;;;;;;;107851;277;42820;-30
2023/04/02 15:46:39;;;;;;;4.90;2.30;;;;;;;;;;107979;273;42145;-30
2023/04/02 15:49:35;;;;;;;5.00;2.70;;;;;;;;;;107949;270;40243;-31
2023/04/02 15:52:15;;;;;;;4.10;2.30;;;;;;;;;;107962;273;40760;-31
2023/04/02 15:55:08;;;;;;;4.90;2.70;;;;;;;;;;107926;270;42822;-31
2023/04/02 15:58:09;;;;;;;4.80;2.40;;;;;;;;;;107895;277;42274;-31
2023/04/02 16:00:49;;;;;;;5.60;2.30;;;;;;;;;;107960;277;38781;-31
2023/04/02 16:03:55;;;;;;;4.90;2.50;;;;;;;;;;107914;277;39804;-31
2023/04/02 16:06:33;;;;;;;4.50;2.40;;;;;;;;;;107949;270;43977;-31
2023/04/02 16:09:23;;;;;;;4.70;2.40;;;;;;;;;;107906;270;43369;-31
2023/04/02 16:12:11;;;;;;;5.10;2.60;;;;;;;;;;107942;270;39900;-31
2023/04/02 16:14:47;;;;;;;4.30;2.40;;;;;;;;;;107913;277;39838;-31
2023/04/02 16:17:26;;;;;;;4.40;2.30;;;;;;;;;;107779;279;175749;-31